createdAt,value
2022-10-12T06:46:14.285Z,10.83
2022-10-12T06:51:08.391Z,9.80
2022-10-12T06:56:06.474Z,9.00
2022-10-12T07:01:00.272Z,9.50
2022-10-12T07:05:55.617Z,9.33
2022-10-12T07:10:49.672Z,9.70
2022-10-12T07:15:43.484Z,9.53
2022-10-12T07:20:40.312Z,9.47
2022-10-12T07:25:35.650Z,9.47
2022-10-12T07:30:29.390Z,9.17
2022-10-12T07:35:23.438Z,10.30
2022-10-12T07:40:17.507Z,10.03
2022-10-12T07:45:14.194Z,9.67
2022-10-12T07:50:09.961Z,9.90
2022-10-12T07:55:03.755Z,10.33
2022-10-12T07:59:57.890Z,9.57
2022-10-12T08:04:53.432Z,8.40
2022-10-12T08:09:48.994Z,8.27
2022-10-12T08:14:43.026Z,8.32
2022-10-12T08:19:37.763Z,8.73
2022-10-12T08:24:33.099Z,9.07
2022-10-12T08:29:26.837Z,8.93
2022-10-12T08:34:20.673Z,9.20
2022-10-12T08:39:14.370Z,8.35
2022-10-12T08:44:34.237Z,8.23
2022-10-12T08:49:29.447Z,8.52
2022-10-12T08:54:26.255Z,8.90
2022-10-12T08:59:21.110Z,8.88
2022-10-12T09:04:35.167Z,8.52
2022-10-12T09:09:43.281Z,8.75
2022-10-12T09:14:40.360Z,9.05
2022-10-12T09:19:39.971Z,10.82
2022-10-12T09:24:37.475Z,9.30
2022-10-12T09:29:32.665Z,9.50
2022-10-12T09:34:26.714Z,9.10
2022-10-12T09:39:29.082Z,8.85
2022-10-12T09:44:29.331Z,8.68
2022-10-12T09:49:23.397Z,9.15
2022-10-12T09:54:20.334Z,8.57
2022-10-12T09:59:30.270Z,7.85
2022-10-12T10:04:25.742Z,8.20
2022-10-12T10:09:31.037Z,7.60
2022-10-12T10:14:26.608Z,8.57
2022-10-12T10:19:25.254Z,8.13
2022-10-12T10:24:28.920Z,7.55
2022-10-12T10:29:45.643Z,8.65
2022-10-12T10:34:39.726Z,7.88
2022-10-12T10:39:47.102Z,7.68
2022-10-12T10:44:51.078Z,8.35
2022-10-12T10:49:49.587Z,7.55
2022-10-12T10:54:45.266Z,6.93
2022-10-12T10:59:46.433Z,6.93
2022-10-12T11:04:43.711Z,7.95
2022-10-12T11:09:44.134Z,7.93
2022-10-12T11:14:43.307Z,7.72
2022-10-12T11:19:43.729Z,8.98
2022-10-12T11:24:44.909Z,7.93
2022-10-12T11:29:39.303Z,8.30
2022-10-12T11:34:42.282Z,7.25
2022-10-12T11:39:41.476Z,7.38
2022-10-12T11:44:43.590Z,6.97
2022-10-12T11:49:50.148Z,6.65
2022-10-12T11:54:48.935Z,7.05
2022-10-12T11:59:46.014Z,6.97
2022-10-12T12:04:44.610Z,6.88
2022-10-12T12:09:47.822Z,6.32
2022-10-12T12:15:02.646Z,7.00
2022-10-12T12:19:58.753Z,6.93
2022-10-12T12:25:12.057Z,6.55
2022-10-12T12:30:22.237Z,6.35
2022-10-12T12:35:24.511Z,6.88
2022-10-12T12:40:25.171Z,6.78
2022-10-12T12:45:54.401Z,6.25
2022-10-12T12:50:50.138Z,6.53
2022-10-12T12:56:04.647Z,6.60
2022-10-12T13:01:19.025Z,6.07
2022-10-12T13:06:55.417Z,6.53
2022-10-12T13:12:03.833Z,6.53
2022-10-12T13:22:33.718Z,6.22
2022-10-12T13:27:35.783Z,5.97
2022-10-12T13:32:40.450Z,5.50
2022-10-12T13:37:36.930Z,7.13
2022-10-12T13:42:36.269Z,6.05
2022-10-12T13:47:32.488Z,6.70
2022-10-12T13:52:31.889Z,5.60
2022-10-12T13:57:34.046Z,6.00
2022-10-12T14:02:31.983Z,6.40
2022-10-12T14:07:29.750Z,6.38
2022-10-12T14:12:25.693Z,5.82
2022-10-12T14:17:22.153Z,6.15
2022-10-12T14:22:22.346Z,6.47
2022-10-12T14:27:25.749Z,6.47
2022-10-12T14:32:44.331Z,6.63
2022-10-12T14:37:39.201Z,6.90
2022-10-12T14:42:35.707Z,6.38
2022-10-12T14:47:32.581Z,6.68
2022-10-12T14:52:32.306Z,7.22
2022-10-12T14:57:27.393Z,7.05
2022-10-12T15:02:23.561Z,6.80
2022-10-12T15:07:21.044Z,6.90
2022-10-12T15:12:18.824Z,6.65
2022-10-12T15:17:14.179Z,7.35
2022-10-12T15:22:08.471Z,7.07
2022-10-12T15:27:02.346Z,7.10
2022-10-12T15:31:58.541Z,7.78
2022-10-12T15:36:52.205Z,7.68
2022-10-12T15:41:46.046Z,9.50
2022-10-12T15:46:40.176Z,8.65
2022-10-12T15:51:40.728Z,8.77
2022-10-12T15:56:34.595Z,8.63
2022-10-12T16:01:28.636Z,8.52
2022-10-12T16:06:22.580Z,8.93
2022-10-12T16:11:19.061Z,8.57
2022-10-12T16:16:12.827Z,9.85
2022-10-12T16:21:06.741Z,9.18
2022-10-12T16:26:01.042Z,8.88
2022-10-12T16:30:56.500Z,8.38
2022-10-12T16:35:50.214Z,10.40
2022-10-12T16:40:44.091Z,10.50
2022-10-12T16:45:37.651Z,10.20
2022-10-12T16:50:32.837Z,10.55
2022-10-12T16:55:26.429Z,11.30
2022-10-12T17:00:21.859Z,12.30
2022-10-12T17:05:15.747Z,12.73
2022-10-12T17:10:11.875Z,11.23
2022-10-12T17:15:06.420Z,12.10
2022-10-12T17:20:00.152Z,12.48
2022-10-12T17:24:53.754Z,12.52
2022-10-12T17:29:49.138Z,13.55
2022-10-12T17:34:44.759Z,13.57
2022-10-12T17:39:43.661Z,13.05
2022-10-12T17:44:37.216Z,13.02
2022-10-12T17:49:32.734Z,13.02
2022-10-12T17:54:27.397Z,11.38
2022-10-12T17:59:22.046Z,22.58
2022-10-12T18:04:15.742Z,22.63
